Tiempo atmosférico en la estación meteorológica de Girona, Girona (79 m.)



Fecha
DESCASC
Temp. máxima en grados centígrados (hora)
DESCASC
Temp. mínima en grados centígrados (hora)
DESCASC
Temp. media en grados centígrados
DESCASC
Racha de viento máxima en m/sg (hora)
DESCASC
Velocidad máxima media en intervalos de 10 minutos(hora)
DESCASC
Precipitaciones diarias en mm
DESCASC
Precipitaciones de 00:00 a 06:00 en mm
DESCASC
Precipitaciones de 06:00 a 12:00 en mm
DESCASC
Precipitaciones de 12:00 a 18:00 en mm
DESCASC
Precipitaciones de 18:00 a 24:00 en mm
DESCASC
18-08-2019 34 (14:20) 20.7 (06:40) 27.4 11.11 (16:30) 5 (14:50) 0 0 0 0 0
17-08-2019 35 (15:00) 20.1 (07:30) 27.6 10.56 (19:00) 5.28 (18:40) 0 0 0 0 0
16-08-2019 31.8 (15:30) 19.2 (05:50) 25.5 10 (15:00) 4.72 (15:00) 0 0 0 0 0
15-08-2019 30.7 (13:00) 17.2 (00:00) 24 7.78 (14:30) 3.61 (14:40) 1.4 0 0 0 1.4
14-08-2019 30.3 (14:40) 17.1 (00:00) 23.7 6.94 (15:20) 3.61 (15:30) 0 0 0 0 0
13-08-2019 30.1 (15:20) 16.6 (00:00) 23.4 7.22 (18:10) 3.61 (17:00) 0 0 0 0 0
12-08-2019 28.3 (14:00) 19 (00:00) 23.6 8.89 (16:40) 4.44 (16:30) 1 0.6 0.4 0 0
11-08-2019 34.9 (16:40) 20.7 (00:00) 27.8 8.89 (17:40) 3.33 (17:50) 0 0 0 0 0
10-08-2019 36.3 (15:00) 24.6 (00:00) 30.4 8.33 (15:50) 2.78 (15:00) 0 0 0 0 0
09-08-2019 36.3 (14:40) 23.6 (00:00) 29.9 10.28 (16:10) 5.28 (16:20) 0 0 0 0 0
08-08-2019 34.6 (13:20) 22 (00:00) 28.3 8.61 (18:30) 4.17 (17:30) 0 0 0 0 0
07-08-2019 32.4 (15:50) 23.5 (00:00) 28 6.11 (17:10) 3.06 (16:20) 1.4 0 0 0 1.4
06-08-2019 35.7 (15:10) 19.9 (00:00) 27.8 7.22 (16:40) 2.78 (16:50) 0 0 0 0 0
05-08-2019 36.5 (14:10) 20.3 (00:00) 28.4 10.28 (16:20) 4.72 (16:00) 0 0 0 0 0
04-08-2019 36.1 (14:20) 20.5 (00:00) 28.3 8.33 (16:40) 4.17 (15:20) 0 0 0 0 0
03-08-2019 34.8 (14:00) 19.5 (00:00) 27.1 9.44 (15:20) 4.17 (15:20) 0 0 0 0 0
02-08-2019 34.3 (16:10) 19 (00:00) 26.6 8.89 (16:20) 3.89 (17:30) 0 0 0 0 0
01-08-2019 31.9 (14:50) 19.3 (00:00) 25.6 6.67 (16:30) 3.06 (15:40) 0 0 0 0 0
31-07-2019 30.6 (15:30) 18.9 (00:00) 24.8 7.22 (15:30) 3.61 (15:10) 0 0 0 0 0
30-07-2019 31.9 (15:00) 20.4 (00:00) 26.1 8.33 (15:20) 3.89 (14:30) 0 0 0 0 0
29-07-2019 31.6 (16:50) 16.2 (00:00) 23.9 7.5 (18:00) 3.61 (16:20) 0 0 0 0 0
28-07-2019 29.7 (16:10) 15.6 (00:00) 22.7 8.06 (16:40) 3.33 (17:40) 0.2 0 0.2 0 0
27-07-2019 26.9 (11:30) 17.6 (00:00) 22.3 9.72 (19:40) 3.89 (19:50) 6.8 0 0 6.4 0.4
26-07-2019 35.6 (13:50) 20.9 (00:00) 28.2 6.67 (16:10) 3.33 (14:10) 0 0 0 0 0
25-07-2019 36 (14:00) 22.1 (00:00) 29.1 9.72 (16:40) 4.72 (17:10) 0 0 0 0 0
24-07-2019 36.4 (14:40) 22.4 (00:00) 29.4 7.78 (16:30) 3.61 (16:30) 0 0 0 0 0
23-07-2019 36.5 (14:10) 20.6 (00:00) 28.6 7.78 (15:00) 3.61 (15:20) 0 0 0 0 0

Gráficas

Temp. máximas Temp. mínimas Temp. medias Precipitaciones Rachas de viento máximas Velocidades máximas media en intervalos de 10 minutos

Datos horarios

Fecha y hora oficial Temperatura (ºC) Velocidad del viento (km/h) Dirección del viento Racha (km/h) Dirección de racha Precipitación (mm) Presión (hPa) Tendencia (hPa) Humedad (%)
2019-08-21 23:00:00 23.2 2 Sudeste 5 Sudeste 0 -- -- 56
2019-08-21 22:00:00 24 0 Calma 8 Sur 0 -- -- 54
2019-08-21 21:00:00 24.9 4 Sur 12 Sur 0 -- -- 49
2019-08-21 20:00:00 26 7 Sur 18 Sudoeste 0 -- -- 45
2019-08-21 19:00:00 27.9 8 Sur 19 Sur 0 -- -- 40
2019-08-21 18:00:00 30 9 Sur 24 Sur 0 -- -- 31
2019-08-21 17:00:00 30.9 11 Sur 28 Sudeste 0 -- -- 32
2019-08-21 16:00:00 31.8 12 Sur 25 Sudeste 0 -- -- 31
2019-08-21 15:00:00 31.9 9 Sur 21 Sur 0 -- -- 31
2019-08-21 14:00:00 31.7 3 Este 14 Nordeste 0 -- -- 26
2019-08-21 13:00:00 30.2 5 Noroeste 12 Sur 0 -- -- 30
2019-08-21 12:00:00 28.2 5 Sudoeste 10 Sur 0 -- -- 38
2019-08-21 11:00:00 25 3 Noroeste 8 Norte 0 -- -- 47
2019-08-21 10:00:00 21.1 4 Sudoeste 6 Sur 0 -- -- 56
2019-08-21 09:00:00 17 0 Calma 5 Sudoeste 0 -- -- 69
2019-08-21 08:00:00 14.7 0 Calma 3 Norte 0 -- -- 78
2019-08-21 07:00:00 14.6 0 Calma 5 Sudoeste 0 -- -- 76
2019-08-21 06:00:00 14.8 0 Calma 4 Oeste 0 -- -- 74
2019-08-21 05:00:00 15.1 0 Calma 6 Sudoeste 0 -- -- 70
2019-08-21 04:00:00 15.7 2 Noroeste 5 Noroeste 0 -- -- 68
2019-08-21 03:00:00 16.8 0 Calma 5 Noroeste 0 -- -- 65
2019-08-21 02:00:00 18.2 0 Calma 7 Noroeste 0 -- -- 60
2019-08-21 01:00:00 19.7 3 Noroeste 10 Noroeste 0 -- -- 53
2019-08-21 00:00:00 21.2 2 Noroeste 11 Norte 0 -- -- 48
2019-08-20 23:00:00 22 4 Nordeste 14 Nordeste 0 -- -- 45
2019-08-20 22:00:00 22.8 5 Norte 19 Noroeste 0 -- -- 41
2019-08-20 21:00:00 23.7 8 Norte 23 Nordeste 0 -- -- 40
2019-08-20 20:00:00 24.8 10 Norte 28 Norte 0 -- -- 42
2019-08-20 19:00:00 26.1 9 Norte 28 Nordeste 0 -- -- 42
2019-08-20 18:00:00 24.5 13 Nordeste 27 Norte 0 -- -- 48
2019-08-20 17:00:00 24.7 13 Nordeste 27 Nordeste 0 -- -- 48
2019-08-20 16:00:00 28.1 3 Noroeste 21 Norte 0 -- -- 40
2019-08-20 15:00:00 27.2 10 Nordeste 26 Norte 0 -- -- 38
2019-08-20 14:00:00 27.2 14 Nordeste 32 Nordeste 0 -- -- 39
2019-08-20 13:00:00 27.6 13 Norte 35 Norte 0 -- -- 39
2019-08-20 12:00:00 27.3 14 Norte 30 Norte 0 -- -- 37
2019-08-20 11:00:00 27 5 Norte 19 Norte 0 -- -- 44
2019-08-20 10:00:00 24.9 8 Norte 19 Nordeste 0 -- -- 52
2019-08-20 09:00:00 20.8 2 Oeste 5 Noroeste 0 -- -- 64
2019-08-20 08:00:00 19.7 0 Calma 6 Sudoeste 0 -- -- 72
2019-08-20 07:00:00 19.3 0 Calma 4 Noroeste 0 -- -- 71
2019-08-20 06:00:00 19.9 0 Calma 4 Noroeste 0 -- -- 70
2019-08-20 05:00:00 21 0 Calma 4 Norte 0 -- -- 62
2019-08-20 04:00:00 22.2 0 Calma 8 Noroeste 0 -- -- 56
2019-08-20 03:00:00 22.5 2 Norte 10 Noroeste 0 -- -- 56
2019-08-20 02:00:00 22.9 5 Norte 12 Norte 0 -- -- 55
2019-08-20 01:00:00 23.2 5 Norte 13 Norte 0 -- -- 54
2019-08-20 00:00:00 23.5 4 Norte 13 Este 0 -- -- 53
2019-08-19 23:00:00 23.9 4 Nordeste 13 Norte 0 -- -- 55
2019-08-19 22:00:00 24.3 3 Nordeste 8 Este 0 -- -- 57
2019-08-19 21:00:00 24.6 4 Nordeste 13 Nordeste 0 -- -- 57
2019-08-19 20:00:00 26 6 Nordeste 17 Este 0 -- -- 53
2019-08-19 19:00:00 26.8 6 Este 17 Nordeste 0 -- -- 50
2019-08-19 18:00:00 28.6 6 Nordeste 22 Nordeste 0 -- -- 44
2019-08-19 17:00:00 28.5 6 Este 20 Nordeste 0 -- -- 44
2019-08-19 16:00:00 29.1 8 Nordeste 28 Nordeste 0 -- -- 44
2019-08-19 15:00:00 31.7 7 Este 21 Sudeste 0 -- -- 42
2019-08-19 14:00:00 31.2 6 Este 21 Este 0 -- -- 44
2019-08-19 13:00:00 30.4 5 Norte 12 Noroeste 0 -- -- 48
2019-08-19 12:00:00 28.8 3 Oeste 10 Oeste 0 -- -- 53
2019-08-19 11:00:00 28.5 4 Sur 9 Sudoeste 0 -- -- 55
2019-08-19 10:00:00 26.1 3 Noroeste 10 Norte 0 -- -- 61
2019-08-19 09:00:00 24 5 Norte 15 Norte 0 -- -- 66
2019-08-19 08:00:00 23 7 Norte 14 Norte 0 -- -- 74
2019-08-19 07:00:00 23.2 6 Norte 18 Noroeste 0 -- -- 79
2019-08-19 06:00:00 23.4 6 Norte 16 Noroeste 0 -- -- 89
2019-08-19 05:00:00 23.8 4 Norte 10 Nordeste 0 -- -- 92
2019-08-19 04:00:00 24.2 4 Norte 8 Norte 0 -- -- 93
2019-08-19 03:00:00 24.4 3 Nordeste 11 Norte 0 -- -- 92
2019-08-19 02:00:00 24.5 4 Noroeste 11 Norte 0 -- -- 92
2019-08-19 01:00:00 24.5 4 Norte 15 Norte 0 -- -- 92
2019-08-19 00:00:00 24.9 5 Noroeste 15 Norte 0 -- -- 89
2019-08-18 23:00:00 25.5 4 Norte 11 Nordeste 0 -- -- 84
2019-08-18 22:00:00 26.5 6 Norte 10 Norte 0 -- -- 77
2019-08-18 21:00:00 27.9 5 Sudeste 16 Sudeste 0 -- -- 65
2019-08-18 20:00:00 29.4 7 Sur 16 Sudeste 0 -- -- 56
2019-08-18 19:00:00 31.4 7 Sur 22 Sudeste 0 -- -- 52
2019-08-18 18:00:00 32.4 8 Sur 35 Sudeste 0 -- -- 50
2019-08-18 17:00:00 33 15 Sur 40 Este 0 -- -- 48
2019-08-18 16:00:00 33.6 17 Sur 38 Este 0 -- -- 47
2019-08-18 15:00:00 33.7 16 Sudeste 38 Sudeste 0 -- -- 47
2019-08-18 14:00:00 33.8 16 Sur 33 Sudeste 0 -- -- 47
2019-08-18 13:00:00 33.6 15 Sur 31 Sudeste 0 -- -- 44
2019-08-18 12:00:00 32.6 14 Sur 31 Sur 0 -- -- 40
2019-08-18 11:00:00 30.4 10 Sur 24 Sudeste 0 -- -- 50
2019-08-18 10:00:00 26.9 6 Sudoeste 17 Sur 0 -- -- 65
2019-08-18 09:00:00 23.7 5 Sur 12 Sur 0 -- -- 80
2019-08-18 08:00:00 21.9 5 Sur 10 Sur 0 -- -- 85
2019-08-18 07:00:00 21.1 4 Sur 11 Sur 0 -- -- 91
2019-08-18 06:00:00 21.5 0 Calma 6 Oeste 0 -- -- 92
2019-08-18 05:00:00 22.2 4 Sur 8 Sudeste 0 -- -- 94
2019-08-18 04:00:00 22.6 4 Sudeste 9 Sudeste 0 -- -- 93
2019-08-18 03:00:00 23 4 Sudeste 9 Sudeste 0 -- -- 90
2019-08-18 02:00:00 23.4 3 Sudeste 10 Sur 0 -- -- 87
2019-08-18 01:00:00 24 3 Sur 13 Sudeste 0 -- -- 84
2019-08-18 00:00:00 24.5 5 Sudeste 18 Sudeste 0 -- -- 81
2019-08-17 23:00:00 25 7 Sudeste 21 Sudeste 0 -- -- 78
2019-08-17 22:00:00 25.9 8 Sudeste 22 Sur 0 -- -- 69
2019-08-17 21:00:00 26.9 9 Sudeste 27 Sudeste 0 -- -- 61
2019-08-17 20:00:00 28.5 13 Sudeste 33 Sudeste 0 -- -- 53
2019-08-17 19:00:00 30 17 Sudeste 38 Sudeste 0 -- -- 48
2019-08-17 18:00:00 31.4 16 Sur 38 Sudeste 0 -- -- 48
2019-08-17 17:00:00 33.2 13 Sur 35 Sudeste 0 -- -- 44
2019-08-17 16:00:00 33.7 14 Sudeste 31 Sur 0 -- -- 45
2019-08-17 15:00:00 35 13 Sur 28 Sudeste 0 -- -- 36
2019-08-17 14:00:00 34.6 9 Sur 23 Sudeste 0 -- -- 40
2019-08-17 13:00:00 33.9 9 Sur 19 Sur 0 -- -- 39
2019-08-17 12:00:00 31.6 6 Sur 16 Sur 0 -- -- 44
2019-08-17 11:00:00 28.2 3 Noroeste 8 Sudoeste 0 -- -- 59
2019-08-17 10:00:00 24.7 3 Sudoeste 8 Sudoeste 0 -- -- 72
2019-08-17 09:00:00 21.6 0 Calma 5 Norte 0 -- -- 88
2019-08-17 08:00:00 20.3 0 Calma 5 Nordeste 0 -- -- 93
2019-08-17 07:00:00 20.3 3 Sudeste 5 Sudeste 0 -- -- 94
2019-08-17 06:00:00 20.6 0 Calma 5 Sudoeste 0 -- -- 93
2019-08-17 05:00:00 21.5 2 Sur 7 Sudeste 0 -- -- 90
2019-08-17 04:00:00 21.9 3 Sur 6 Sudeste 0 -- -- 93
2019-08-17 03:00:00 22.3 2 Sudeste 6 Sur 0 -- -- 91
2019-08-17 02:00:00 22.8 3 Sur 8 Este 0 -- -- 89
2019-08-17 01:00:00 23.4 2 Sudeste 4 Sur 0 -- -- 85
2019-08-17 00:00:00 24.2 0 Calma 5 Sudeste 0 -- -- 82
2019-08-16 23:00:00 25 2 Sur 7 Sudeste 0 -- -- 78
2019-08-16 22:00:00 25.8 4 Sudeste 9 Sudeste 0 -- -- 73
2019-08-16 21:00:00 26.8 6 Sudeste 15 Sudeste 0 -- -- 69
2019-08-16 20:00:00 27.9 5 Sudeste 15 Sudeste 0 -- -- 65
2019-08-16 19:00:00 29 7 Sudeste 21 Sudeste 0 -- -- 61
2019-08-16 18:00:00 30.3 11 Sur 31 Sudeste 0 -- -- 55
2019-08-16 17:00:00 30.9 14 Sudeste 36 Sudeste 0 -- -- 51
2019-08-16 16:00:00 31.3 15 Sur 35 Sur 0 -- -- 50
2019-08-16 15:00:00 31 17 Sur 36 Sudeste 0 -- -- 48
2019-08-16 14:00:00 30.3 15 Sur 36 Sudeste 0 -- -- 52
2019-08-16 13:00:00 29.6 11 Sur 27 Sur 0 -- -- 53
2019-08-16 12:00:00 27.8 12 Sur 22 Sudoeste 0 -- -- 58
2019-08-16 11:00:00 25.7 7 Sudeste 14 Sudeste 0 -- -- 58
2019-08-16 10:00:00 22.9 3 Sudoeste 7 Sur 0 -- -- 65
2019-08-16 09:00:00 20.7 2 Noroeste 4 Noroeste 0 -- -- 80
2019-08-16 08:00:00 20 0 Calma 6 Noroeste 0 -- -- 84
2019-08-16 07:00:00 19.7 0 Calma 4 Oeste 0 -- -- 82
2019-08-16 06:00:00 19.3 0 Calma 5 Nordeste 0 -- -- 93
2019-08-16 05:00:00 19.7 0 Calma 5 Nordeste 0 -- -- 89
2019-08-16 04:00:00 20.5 2 Nordeste 4 Nordeste 0 -- -- 88
2019-08-16 03:00:00 21.1 0 Calma 4 Nordeste 0 -- -- 84
2019-08-16 02:00:00 21.5 0 Calma 4 Norte 0 -- -- 93
2019-08-16 01:00:00 21.4 0 Calma 7 Nordeste 0 -- -- 92
2019-08-16 00:00:00 21.5 0 Calma 5 Este 0 -- -- 94
2019-08-15 23:00:00 21.6 0 Calma 4 Norte 0.4 -- -- 95
2019-08-15 22:00:00 21.7 0 Calma 6 Sudoeste 0.8 -- -- 90
2019-08-15 21:00:00 22.5 3 Noroeste 13 Norte 0 -- -- 83
2019-08-15 20:00:00 23.3 0 Calma 6 Norte 0 -- -- 77
2019-08-15 19:00:00 23.2 2 Noroeste 6 Noroeste 0.2 -- -- 86
2019-08-15 18:00:00 23.6 0 Calma 8 Noroeste 0 -- -- 81
2019-08-15 17:00:00 23.7 2 Noroeste 13 Este 0 -- -- 80
2019-08-15 16:00:00 26.2 2 Este 25 Sudeste 0 -- -- 62
2019-08-15 15:00:00 28.5 10 Sudeste 28 Sudeste 0 -- -- 55
2019-08-15 14:00:00 28.4 9 Sudeste 23 Sudeste 0 -- -- 56
2019-08-15 13:00:00 30.7 7 Sudeste 18 Sudeste 0 -- -- 46
2019-08-15 12:00:00 29.3 5 Sur 19 Sudeste 0 -- -- 50
2019-08-15 11:00:00 27.1 8 Sur 16 Sur 0 -- -- 57
2019-08-15 10:00:00 23.6 3 Sudoeste 8 Sur 0 -- -- 62
2019-08-15 09:00:00 19.5 2 Sudeste 4 Norte 0 -- -- 75
2019-08-15 08:00:00 17.7 0 Calma 4 Oeste 0 -- -- 83
2019-08-15 07:00:00 17.4 0 Calma 5 Noroeste 0 -- -- 86
2019-08-15 06:00:00 17.7 0 Calma 3 Noroeste 0 -- -- 86
2019-08-15 05:00:00 18.4 0 Calma 6 Sudoeste 0 -- -- 86
2019-08-15 04:00:00 19.3 2 Sur 8 Sudoeste 0 -- -- 83
2019-08-15 03:00:00 19.7 0 Calma 8 Sur 0 -- -- 82
2019-08-15 02:00:00 20.5 3 Nordeste 5 Sudoeste 0 -- -- 79
2019-08-15 01:00:00 21.2 0 Calma 4 Sur 0 -- -- 76
2019-08-15 00:00:00 22.3 0 Calma 6 Sudeste 0 -- -- 72
2019-08-14 23:00:00 23 3 Sur 8 Sur 0 -- -- 70
2019-08-14 22:00:00 23.6 4 Sur 10 Sudeste 0 -- -- 67
2019-08-14 21:00:00 24.6 6 Sur 13 Sur 0 -- -- 62
2019-08-14 20:00:00 25.9 7 Sur 18 Sudeste 0 -- -- 57
2019-08-14 19:00:00 27.5 10 Sur 21 Sur 0 -- -- 50
2019-08-14 18:00:00 28.8 9 Sur 25 Sudoeste 0 -- -- 46
2019-08-14 17:00:00 29.2 10 Sur 21 Sudeste 0 -- -- 44
2019-08-14 16:00:00 29 10 Sur 25 Sudeste 0 -- -- 44
2019-08-14 15:00:00 29.8 5 Nordeste 13 Noroeste 0 -- -- 36
2019-08-14 14:00:00 29.7 4 Este 14 Nordeste 0 -- -- 36
2019-08-14 13:00:00 28.4 4 Sur 17 Sudeste 0 -- -- 40
2019-08-14 12:00:00 26.9 3 Oeste 11 Sudoeste 0 -- -- 45
2019-08-14 11:00:00 25.5 5 Sudoeste 8 Oeste 0 -- -- 47
2019-08-14 10:00:00 22.4 2 Noroeste 11 Noroeste 0 -- -- 50
2019-08-14 09:00:00 19 0 Calma 5 Noroeste 0 -- -- 60
2019-08-14 08:00:00 17.2 0 Calma 5 Noroeste 0 -- -- 69
2019-08-14 07:00:00 17.6 0 Calma 5 Noroeste 0 -- -- 68
2019-08-14 06:00:00 18.2 0 Calma 7 Noroeste 0 -- -- 65
2019-08-14 05:00:00 18.9 0 Calma 7 Oeste 0 -- -- 57
2019-08-14 04:00:00 19.8 0 Calma 12 Norte 0 -- -- 53
2019-08-14 03:00:00 19.6 2 Noroeste 12 Norte 0 -- -- 54
2019-08-14 02:00:00 19.9 3 Noroeste 9 Norte 0 -- -- 53
2019-08-14 01:00:00 20.5 2 Norte 5 Norte 0 -- -- 51
2019-08-14 00:00:00 21.3 3 Norte 6 Nordeste 0 -- -- 48
2019-08-13 23:00:00 22.3 3 Nordeste 14 Nordeste 0 -- -- 46
2019-08-13 22:00:00 23.3 4 Nordeste 11 Sudeste 0 -- -- 47
2019-08-13 21:00:00 23.8 6 Sudeste 14 Sudeste 0 -- -- 60
2019-08-13 20:00:00 25 7 Sur 17 Sudeste 0 -- -- 56
2019-08-13 19:00:00 26.4 9 Sudeste 26 Sudoeste 0 -- -- 50
2019-08-13 18:00:00 27.5 10 Sur 25 Sudeste 0 -- -- 46
2019-08-13 17:00:00 27.4 13 Sur 25 Sudeste 0 -- -- 46
2019-08-13 16:00:00 29.1 11 Sur 24 Sudeste 0 -- -- 40
2019-08-13 15:00:00 29.2 6 Sudeste 22 Nordeste 0 -- -- 35
2019-08-13 14:00:00 27.9 4 Noroeste 13 Sudoeste 0 -- -- 35
2019-08-13 13:00:00 26.9 4 Nordeste 13 Noroeste 0 -- -- 39
2019-08-13 12:00:00 25.1 4 Noroeste 14 Noroeste 0 -- -- 43
2019-08-13 11:00:00 22.6 4 Norte 15 Norte 0 -- -- 50
2019-08-13 10:00:00 20.8 9 Norte 14 Nordeste 0 -- -- 54
2019-08-13 09:00:00 18.7 2 Noroeste 9 Noroeste 0 -- -- 65
2019-08-13 08:00:00 17.8 0 Calma 16 Norte 0 -- -- 66
2019-08-13 07:00:00 18.2 4 Norte 14 Norte 0 -- -- 63
2019-08-13 06:00:00 16.7 3 Noroeste 6 Noroeste 0 -- -- 71
2019-08-13 05:00:00 16.9 0 Calma 5 Noroeste 0 -- -- 72
2019-08-13 04:00:00 17.8 0 Calma 8 Noroeste 0 -- -- 68
2019-08-13 03:00:00 19 2 Noroeste 4 Sudoeste 0 -- -- 64
2019-08-13 02:00:00 20.7 0 Calma 18 Norte 0 -- -- 54
2019-08-13 01:00:00 21.6 8 Norte 18 Nordeste 0 -- -- 47
2019-08-13 00:00:00 21.8 8 Norte 21 Nordeste 0 -- -- 45
2019-08-12 23:00:00 21.6 6 Norte 21 Norte 0 -- -- 48
2019-08-12 22:00:00 22.6 6 Norte 19 Nordeste 0 -- -- 41
2019-08-12 21:00:00 23.6 6 Nordeste 19 Norte 0 -- -- 39
2019-08-12 20:00:00 24.8 6 Norte 22 Norte 0 -- -- 41
2019-08-12 19:00:00 25.9 10 Norte 28 Norte 0 -- -- 41
2019-08-12 18:00:00 27.1 11 Nordeste 31 Nordeste 0 -- -- 40
2019-08-12 17:00:00 27.9 14 Norte 32 Noroeste 0 -- -- 37
2019-08-12 16:00:00 27.9 13 Norte 26 Norte 0 -- -- 37
2019-08-12 15:00:00 27.1 10 Norte 25 Norte 0 -- -- 39
2019-08-12 14:00:00 28.3 7 Nordeste 18 Nordeste 0 -- -- 40
2019-08-12 13:00:00 26.3 6 Norte 18 Nordeste 0 -- -- 45
2019-08-12 12:00:00 24.5 5 Noroeste 15 Noroeste 0 -- -- 55
2019-08-12 11:00:00 23.1 4 Norte 17 Norte 0 -- -- 64
2019-08-12 10:00:00 21.3 6 Norte 17 Norte 0 -- -- 75
2019-08-12 09:00:00 20.4 2 Norte 11 Norte 0 -- -- 80
2019-08-12 08:00:00 19.4 5 Noroeste 10 Norte 0.2 -- -- 81
2019-08-12 07:00:00 19.3 5 Oeste 15 Norte 0.2 -- -- 85
2019-08-12 06:00:00 19.8 3 Nordeste 19 Noroeste 0.6 -- -- 77
2019-08-12 05:00:00 22.6 6 Norte 15 Norte 0 -- -- 56
2019-08-12 04:00:00 22.7 7 Norte 13 Norte 0 -- -- 55
2019-08-12 03:00:00 22.5 6 Norte 15 Norte 0 -- -- 56
2019-08-12 02:00:00 22.9 5 Nordeste 14 Norte 0 -- -- 57
2019-08-12 01:00:00 23.3 4 Norte 13 Norte 0 -- -- 57
2019-08-12 00:00:00 23.9 5 Norte 13 Norte 0 -- -- 56
2019-08-11 23:00:00 24.6 4 Nordeste 10 Este 0 -- -- 61
2019-08-11 22:00:00 25.5 5 Norte 10 Norte 0 -- -- 63
2019-08-11 21:00:00 26 3 Sudeste 14 Este 0 -- -- 62
2019-08-11 20:00:00 27.4 6 Sudeste 20 Sudeste 0 -- -- 59
2019-08-11 19:00:00 29.3 8 Norte 24 Nordeste 0 -- -- 48
2019-08-11 18:00:00 31.3 9 Nordeste 32 Nordeste 0 -- -- 44
2019-08-11 17:00:00 34.1 6 Nordeste 21 Nordeste 0 -- -- 38
2019-08-11 16:00:00 34.4 10 Sur 22 Sudoeste 0 -- -- 38
2019-08-11 15:00:00 34 12 Sur 30 Sur 0 -- -- 40
2019-08-11 14:00:00 34.3 9 Sur 21 Sur 0 -- -- 36
2019-08-11 13:00:00 33.3 9 Sudeste 21 Sudeste 0 -- -- 37
2019-08-11 12:00:00 31.9 6 Sur 17 Sudoeste 0 -- -- 41
2019-08-11 11:00:00 30.3 8 Sur 16 Sudoeste 0 -- -- 43
2019-08-11 10:00:00 26.9 2 Noroeste 5 Sur 0 -- -- 54
2019-08-11 09:00:00 23.3 3 Noroeste 6 Norte 0 -- -- 68
2019-08-11 08:00:00 21.2 0 Calma 3 Noroeste 0 -- -- 75
2019-08-11 07:00:00 20.8 0 Calma 4 Sudoeste 0 -- -- 76
2019-08-11 06:00:00 21.1 0 Calma 5 Noroeste 0 -- -- 76
2019-08-11 05:00:00 21.7 0 Calma 3 Oeste 0 -- -- 73
2019-08-11 04:00:00 22.2 0 Calma 3 Noroeste 0 -- -- 71
2019-08-11 03:00:00 22.8 0 Calma 3 Oeste 0 -- -- 68
2019-08-11 02:00:00 23.6 0 Calma 4 Noroeste 0 -- -- 66
2019-08-11 01:00:00 24.7 0 Calma 4 Noroeste 0 -- -- 62
2019-08-11 00:00:00 25.9 0 Calma 12 Nordeste 0 -- -- 57
2019-08-10 23:00:00 26.7 3 Nordeste 9 Nordeste 0 -- -- 55
2019-08-10 22:00:00 27.6 4 Nordeste 11 Norte 0 -- -- 51
2019-08-10 21:00:00 28.7 3 Este 15 Este 0 -- -- 48
2019-08-10 20:00:00 30 5 Este 17 Este 0 -- -- 45
2019-08-10 19:00:00 31.3 6 Este 18 Sudeste 0 -- -- 44
2019-08-10 18:00:00 32.5 6 Este 21 Nordeste 0 -- -- 41
2019-08-10 17:00:00 33.8 8 Nordeste 24 Nordeste 0 -- -- 38
2019-08-10 16:00:00 34.3 8 Nordeste 30 Nordeste 0 -- -- 36
2019-08-10 15:00:00 36.3 10 Sudeste 25 Sudeste 0 -- -- 34
2019-08-10 14:00:00 35.7 5 Sur 17 Sudoeste 0 -- -- 35
2019-08-10 13:00:00 33.9 5 Sudoeste 16 Sudoeste 0 -- -- 38
2019-08-10 12:00:00 31.9 7 Norte 15 Norte 0 -- -- 41
2019-08-10 11:00:00 30.6 6 Norte 17 Norte 0 -- -- 45
2019-08-10 10:00:00 28.5 8 Norte 15 Noroeste 0 -- -- 52
2019-08-10 09:00:00 26 6 Norte 13 Norte 0 -- -- 63
2019-08-10 08:00:00 24.8 3 Noroeste 14 Norte 0 -- -- 70
2019-08-10 07:00:00 24.7 3 Noroeste 11 Norte 0 -- -- 82
2019-08-10 06:00:00 24.9 2 Noroeste 13 Nordeste 0 -- -- 84
2019-08-10 05:00:00 25.3 5 Norte 11 Norte 0 -- -- 84
2019-08-10 04:00:00 25.6 2 Noroeste 5 Nordeste 0 -- -- 86
2019-08-10 03:00:00 25.5 5 Norte 13 Noroeste 0 -- -- 86
2019-08-10 02:00:00 26 5 Norte 12 Nordeste 0 -- -- 82
2019-08-10 01:00:00 26.2 2 Noroeste 9 Norte 0 -- -- 80
2019-08-10 00:00:00 26.4 4 Norte 19 Nordeste 0 -- -- 80
2019-08-09 23:00:00 27.1 5 Noroeste 18 Nordeste 0 -- -- 79
2019-08-09 22:00:00 30.2 0 Calma 8 Este 0 -- -- 51
2019-08-09 21:00:00 30.9 4 Sudeste 26 Este 0 -- -- 50
2019-08-09 20:00:00 32.3 10 Sudeste 31 Sudeste 0 -- -- 49
2019-08-09 19:00:00 33.3 14 Sudeste 32 Sur 0 -- -- 49
2019-08-09 18:00:00 33.4 13 Sudeste 34 Sudeste 0 -- -- 52
2019-08-09 17:00:00 33.9 18 Sur 37 Sur 0 -- -- 51
2019-08-09 16:00:00 35.9 14 Sur 31 Sur 0 -- -- 46
2019-08-09 15:00:00 36 15 Sur 30 Sudeste 0 -- -- 45
2019-08-09 14:00:00 35.7 12 Sudeste 25 Sudeste 0 -- -- 46
2019-08-09 13:00:00 35.2 9 Sur 25 Sur 0 -- -- 45
2019-08-09 12:00:00 33.9 10 Sur 22 Sudeste 0 -- -- 46
2019-08-09 11:00:00 31.9 9 Sur 19 Sudeste 0 -- -- 48
2019-08-09 10:00:00 28.7 6 Sur 17 Sur 0 -- -- 65
2019-08-09 09:00:00 25.4 8 Sudeste 15 Sur 0 -- -- 90
2019-08-09 08:00:00 23.9 3 Sur 9 Sur 0 -- -- 94
2019-08-09 07:00:00 23.9 4 Sur 7 Sudeste 0 -- -- 95
2019-08-09 06:00:00 23.9 4 Sudeste 8 Sudeste 0 -- -- 95
2019-08-09 05:00:00 24.2 3 Sur 12 Sur 0 -- -- 94
2019-08-09 04:00:00 24.4 4 Sur 8 Sur 0 -- -- 93
2019-08-09 03:00:00 24.6 4 Sur 10 Sudeste 0 -- -- 91
2019-08-09 02:00:00 25.3 4 Sudeste 10 Sur 0 -- -- 87
2019-08-09 01:00:00 25.6 5 Sur 9 Sudeste 0 -- -- 84
2019-08-09 00:00:00 26.1 3 Sur 11 Sur 0 -- -- 80
2019-08-08 23:00:00 26.6 5 Sur 11 Sudeste 0 -- -- 76
2019-08-08 22:00:00 27.5 4 Sur 18 Sur 0 -- -- 70
2019-08-08 21:00:00 28.8 8 Sur 22 Sur 0 -- -- 60
2019-08-08 20:00:00 30 12 Sur 30 Sudeste 0 -- -- 57
2019-08-08 19:00:00 31.6 14 Sur 31 Sur 0 -- -- 52
2019-08-08 18:00:00 32.4 15 Sudeste 30 Sur 0 -- -- 54
2019-08-08 17:00:00 33.6 13 Sur 30 Sur 0 -- -- 50
2019-08-08 16:00:00 33.9 13 Sur 28 Sur 0 -- -- 48
2019-08-08 15:00:00 33.8 11 Sudeste 27 Sur 0 -- -- 50
2019-08-08 14:00:00 34.4 10 Sur 26 Sudeste 0 -- -- 48
2019-08-08 13:00:00 33.8 3 Sudeste 15 Sur 0 -- -- 43
2019-08-08 12:00:00 31.7 4 Sudoeste 12 Sudoeste 0 -- -- 54
2019-08-08 11:00:00 29.3 4 Sudoeste 10 Sur 0 -- -- 64
2019-08-08 10:00:00 26.4 3 Sudoeste 5 Sur 0 -- -- 75
2019-08-08 09:00:00 23.7 0 Calma 4 Noroeste 0 -- -- 86
2019-08-08 08:00:00 22.4 0 Calma 5 Nordeste 0 -- -- 92
2019-08-08 07:00:00 22 0 Calma 6 Sudoeste 0 -- -- 92
2019-08-08 06:00:00 22.5 2 Sur 5 Sur 0 -- -- 89
2019-08-08 05:00:00 22.7 3 Nordeste 7 Nordeste 0 -- -- 88
2019-08-08 04:00:00 23.1 2 Este 6 Este 0 -- -- 87
2019-08-08 03:00:00 23.2 0 Calma 6 Este 0 -- -- 88
2019-08-08 02:00:00 23.3 0 Calma 4 Noroeste 0 -- -- 87
2019-08-08 01:00:00 23.3 0 Calma 9 Sudoeste 0 -- -- 87
2019-08-08 00:00:00 23.5 0 Calma 5 Norte 0 -- -- 87
2019-08-07 23:00:00 24 0 Calma 4 Sudoeste 0 -- -- 82
2019-08-07 22:00:00 24.3 0 Calma 7 Oeste 0 -- -- 83
2019-08-07 21:00:00 24.9 0 Calma 13 Norte 0 -- -- 78
2019-08-07 20:00:00 25 3 Noroeste 15 Noroeste 0.2 -- -- 78
2019-08-07 19:00:00 28.4 5 Sur 10 Norte 1.2 -- -- 62
2019-08-07 18:00:00 29.7 6 Nordeste 22 Nordeste 0 -- -- 44
2019-08-07 17:00:00 31.4 7 Norte 21 Nordeste 0 -- -- 40
2019-08-07 16:00:00 32.1 5 Norte 17 Este 0 -- -- 41
2019-08-07 15:00:00 30.5 8 Nordeste 18 Nordeste 0 -- -- 50
2019-08-07 14:00:00 31.2 5 Este 15 Este 0 -- -- 52
2019-08-07 13:00:00 30.4 6 Nordeste 18 Norte 0 -- -- 54
2019-08-07 12:00:00 29.6 5 Norte 18 Noroeste 0 -- -- 58
2019-08-07 11:00:00 28 4 Noroeste 15 Norte 0 -- -- 69
2019-08-07 10:00:00 26.3 6 Norte 14 Noroeste 0 -- -- 75
2019-08-07 09:00:00 25 5 Norte 10 Norte 0 -- -- 86
2019-08-07 08:00:00 24.3 3 Nordeste 6 Este 0 -- -- 90
2019-08-07 07:00:00 24 0 Calma 8 Sudeste 0 -- -- 90
2019-08-07 06:00:00 24.6 3 Sur 7 Sudeste 0 -- -- 88
2019-08-07 05:00:00 24.6 3 Sur 10 Sudeste 0 -- -- 87
2019-08-07 04:00:00 24.7 5 Sudeste 10 Sur 0 -- -- 87
2019-08-07 03:00:00 24.7 0 Calma 10 Norte 0 -- -- 88
2019-08-07 02:00:00 24.9 4 Norte 9 Norte 0 -- -- 90
2019-08-07 01:00:00 24.9 4 Norte 10 Norte 0 -- -- 90
2019-08-07 00:00:00 25.3 4 Nordeste 12 Norte 0 -- -- 88
2019-08-06 23:00:00 25.3 6 Norte 15 Norte 0 -- -- 88
2019-08-06 22:00:00 26.1 4 Norte 18 Norte 0 -- -- 84
2019-08-06 21:00:00 26.8 8 Norte 22 Nordeste 0 -- -- 79
2019-08-06 20:00:00 29 10 Norte 23 Norte 0 -- -- 67
2019-08-06 19:00:00 30.9 6 Sudeste 22 Sudeste 0 -- -- 54
2019-08-06 18:00:00 33.1 8 Sur 23 Sudeste 0 -- -- 49
2019-08-06 17:00:00 34.3 10 Sur 26 Sudeste 0 -- -- 44
2019-08-06 16:00:00 35.7 9 Sur 24 Sudeste 0 -- -- 37
2019-08-06 15:00:00 35.5 8 Sur 21 Sudoeste 0 -- -- 30
2019-08-06 14:00:00 34.2 8 Sur 21 Sudoeste 0 -- -- 35
2019-08-06 13:00:00 33.4 9 Sur 23 Sudoeste 0 -- -- 39
2019-08-06 12:00:00 31.5 4 Noroeste 9 Noroeste 0 -- -- 44
2019-08-06 11:00:00 28.5 3 Noroeste 13 Noroeste 0 -- -- 59
2019-08-06 10:00:00 26 5 Noroeste 12 Norte 0 -- -- 68
2019-08-06 09:00:00 22.8 4 Noroeste 10 Noroeste 0 -- -- 72
2019-08-06 08:00:00 20.2 0 Calma 5 Noroeste 0 -- -- 68
2019-08-06 07:00:00 20.1 0 Calma 4 Este 0 -- -- 68
2019-08-06 06:00:00 20.3 0 Calma 3 Noroeste 0 -- -- 64
2019-08-06 05:00:00 20.7 0 Calma 3 Noroeste 0 -- -- 61
2019-08-06 04:00:00 21.2 0 Calma 5 Oeste 0 -- -- 57
2019-08-06 03:00:00 22.1 0 Calma 3 Oeste 0 -- -- 53
2019-08-06 02:00:00 22.6 0 Calma 4 Noroeste 0 -- -- 51
2019-08-06 01:00:00 23.7 2 Noroeste 5 Noroeste 0 -- -- 46
2019-08-06 00:00:00 25.6 0 Calma 5 Sur 0 -- -- 49
2019-08-05 23:00:00 26.6 2 Sudeste 9 Este 0 -- -- 47
2019-08-05 22:00:00 27.5 2 Sudeste 16 Sudeste 0 -- -- 40
2019-08-05 21:00:00 29.2 8 Sur 23 Sur 0 -- -- 31
2019-08-05 20:00:00 30.8 9 Sur 27 Sudeste 0 -- -- 29
2019-08-05 19:00:00 32.1 14 Sur 35 Sur 0 -- -- 33
2019-08-05 18:00:00 33.8 13 Sur 34 Sur 0 -- -- 34
2019-08-05 17:00:00 34.7 16 Sur 37 Sur 0 -- -- 31
2019-08-05 16:00:00 35.1 17 Sudeste 35 Sur 0 -- -- 31
2019-08-05 15:00:00 36.5 12 Sur 26 Sudeste 0 -- -- 28
2019-08-05 14:00:00 36.3 12 Sur 23 Sur 0 -- -- 26
2019-08-05 13:00:00 35.3 8 Sudoeste 18 Sudeste 0 -- -- 31
2019-08-05 12:00:00 33.3 7 Sur 18 Sudeste 0 -- -- 34
2019-08-05 11:00:00 30.1 3 Este 8 Noroeste 0 -- -- 48
2019-08-05 10:00:00 26.5 3 Noroeste 6 Norte 0 -- -- 61
2019-08-05 09:00:00 23 0 Calma 4 Oeste 0 -- -- 69
2019-08-05 08:00:00 21.1 0 Calma 3 Noroeste 0 -- -- 70
2019-08-05 07:00:00 20.3 0 Calma 3 Noroeste 0 -- -- 71
2019-08-05 06:00:00 20.8 0 Calma 3 Noroeste 0 -- -- 70
2019-08-05 05:00:00 21.4 0 Calma 3 Noroeste 0 -- -- 70
2019-08-05 04:00:00 22.4 0 Calma 6 Sudoeste 0 -- -- 67
2019-08-05 03:00:00 23.7 3 Sur 6 Sur 0 -- -- 81
2019-08-05 02:00:00 24.2 4 Sur 9 Sur 0 -- -- 77
2019-08-05 01:00:00 24.9 3 Sur 6 Sur 0 -- -- 66
2019-08-05 00:00:00 25.6 0 Calma 10 Sudeste 0 -- -- 60
2019-08-04 23:00:00 26.8 3 Sur 10 Sudoeste 0 -- -- 50
2019-08-04 22:00:00 27.8 3 Sur 11 Sudeste 0 -- -- 46
2019-08-04 21:00:00 28.9 5 Sudeste 18 Sudeste 0 -- -- 42
2019-08-04 20:00:00 29.8 8 Sudeste 25 Sudeste 0 -- -- 41
2019-08-04 19:00:00 30.1 11 Sur 28 Sur 0 -- -- 40
2019-08-04 18:00:00 33.2 12 Sur 28 Sur 0 -- -- 37
2019-08-04 17:00:00 33.7 12 Sudeste 30 Este 0 -- -- 36
2019-08-04 16:00:00 34.7 14 Sur 30 Sur 0 -- -- 31
2019-08-04 15:00:00 35.4 11 Sur 27 Sudeste 0 -- -- 32
2019-08-04 14:00:00 35.7 13 Sur 25 Sudeste 0 -- -- 31
2019-08-04 13:00:00 35.2 5 Sudeste 19 Sudoeste 0 -- -- 33
2019-08-04 12:00:00 33.3 4 Sudoeste 13 Norte 0 -- -- 35
2019-08-04 11:00:00 30.6 5 Noroeste 13 Norte 0 -- -- 42
2019-08-04 10:00:00 26.5 2 Oeste 4 Sudoeste 0 -- -- 55
2019-08-04 09:00:00 22.8 0 Calma 4 Nordeste 0 -- -- 71
2019-08-04 08:00:00 21.1 0 Calma 5 Sudeste 0 -- -- 77
2019-08-04 07:00:00 20.6 0 Calma 4 Oeste 0 -- -- 79
2019-08-04 06:00:00 21.1 0 Calma 2 Sudoeste 0 -- -- 78
2019-08-04 05:00:00 22 0 Calma 5 Sur 0 -- -- 75
2019-08-04 04:00:00 22.8 3 Sur 6 Sudeste 0 -- -- 68
2019-08-04 03:00:00 23.6 3 Sur 9 Sur 0 -- -- 67
2019-08-04 02:00:00 24.2 0 Calma 6 Sur 0 -- -- 68
2019-08-04 01:00:00 24.5 4 Sudeste 9 Sudeste 0 -- -- 72
2019-08-04 00:00:00 25.1 5 Sudeste 11 Sudeste 0 -- -- 72
2019-08-03 23:00:00 25.7 5 Sur 12 Sudeste 0 -- -- 69
2019-08-03 22:00:00 26.6 4 Sur 12 Sudeste 0 -- -- 64
2019-08-03 21:00:00 27.9 6 Sudeste 14 Sudeste 0 -- -- 57
2019-08-03 20:00:00 29.3 6 Sudeste 23 Sudeste 0 -- -- 48
2019-08-03 19:00:00 31 10 Sudeste 28 Sudeste 0 -- -- 45
2019-08-03 18:00:00 32.2 12 Sur 33 Sur 0 -- -- 42
2019-08-03 17:00:00 32.9 14 Sur 28 Sudeste 0 -- -- 38
2019-08-03 16:00:00 34 13 Sur 34 Sudeste 0 -- -- 32
2019-08-03 15:00:00 34 13 Sur 30 Sudoeste 0 -- -- 33
2019-08-03 14:00:00 34.8 7 Sur 22 Sudoeste 0 -- -- 30
2019-08-03 13:00:00 33.7 6 Sudoeste 18 Sur 0 -- -- 33
2019-08-03 12:00:00 32.1 4 Sudoeste 13 Sur 0 -- -- 35
2019-08-03 11:00:00 30 4 Sudeste 9 Sudoeste 0 -- -- 40
2019-08-03 10:00:00 26.2 2 Este 5 Este 0 -- -- 51
2019-08-03 09:00:00 22.1 2 Oeste 6 Noroeste 0 -- -- 66
2019-08-03 08:00:00 20 0 Calma 5 Oeste 0 -- -- 74
2019-08-03 07:00:00 19.7 0 Calma 8 Este 0 -- -- 74
2019-08-03 06:00:00 20 3 Sudeste 5 Sur 0 -- -- 74
2019-08-03 05:00:00 20.4 0 Calma 3 Noroeste 0 -- -- 71
2019-08-03 04:00:00 20.9 0 Calma 4 Noroeste 0 -- -- 69
2019-08-03 03:00:00 21.9 2 Noroeste 5 Noroeste 0 -- -- 66
2019-08-03 02:00:00 22.6 2 Nordeste 5 Nordeste 0 -- -- 63
2019-08-03 01:00:00 23.7 0 Calma 3 Noroeste 0 -- -- 60
2019-08-03 00:00:00 24.8 2 Nordeste 5 Sudeste 0 -- -- 54
2019-08-02 23:00:00 25.9 3 Sur 6 Sur 0 -- -- 52
2019-08-02 22:00:00 26.8 4 Sudeste 9 Sudeste 0 -- -- 50
2019-08-02 21:00:00 27.8 5 Sur 17 Sur 0 -- -- 47
2019-08-02 20:00:00 29.1 10 Sur 21 Sudeste 0 -- -- 45
2019-08-02 19:00:00 30.7 10 Sur 23 Sur 0 -- -- 41
2019-08-02 18:00:00 31.7 13 Sur 28 Sudoeste 0 -- -- 40
2019-08-02 17:00:00 33.2 12 Sur 32 Sudeste 0 -- -- 34
2019-08-02 16:00:00 34 9 Sudoeste 26 Sudoeste 0 -- -- 33
2019-08-02 15:00:00 33.3 9 Norte 23 Nordeste 0 -- -- 31
2019-08-02 14:00:00 33.3 5 Este 18 Nordeste 0 -- -- 31
2019-08-02 13:00:00 31.9 7 Nordeste 24 Este 0 -- -- 33
2019-08-02 12:00:00 30.4 10 Norte 29 Noroeste 0 -- -- 37
2019-08-02 11:00:00 28.9 5 Norte 18 Norte 0 -- -- 41
2019-08-02 10:00:00 25.2 6 Norte 13 Norte 0 -- -- 49
2019-08-02 09:00:00 21.1 0 Calma 4 Sur 0 -- -- 61
2019-08-02 08:00:00 19.5 0 Calma 4 Norte 0 -- -- 66
2019-08-02 07:00:00 19.1 0 Calma 5 Este 0 -- -- 66
2019-08-02 06:00:00 19.5 2 Nordeste 6 Este 0 -- -- 64
2019-08-02 05:00:00 19.9 2 Sudoeste 6 Norte 0 -- -- 63
2019-08-02 04:00:00 20.6 2 Sur 8 Nordeste 0 -- -- 60
2019-08-02 03:00:00 20.4 0 Calma 5 Noroeste 0 -- -- 59
2019-08-02 02:00:00 21.4 0 Calma 5 Sudoeste 0 -- -- 57
2019-08-02 01:00:00 22.2 2 Oeste 8 Norte 0 -- -- 58
2019-08-02 00:00:00 23.1 0 Calma 9 Noroeste 0 -- -- 55
2019-08-01 23:00:00 24.1 3 Norte 14 Norte 0 -- -- 51
2019-08-01 22:00:00 25.3 6 Norte 17 Noroeste 0 -- -- 44
2019-08-01 21:00:00 26.9 3 Nordeste 12 Este 0 -- -- 35
2019-08-01 20:00:00 28.4 4 Este 18 Norte 0 -- -- 32
2019-08-01 19:00:00 29.8 8 Este 19 Este 0 -- -- 29
2019-08-01 18:00:00 31.3 7 Nordeste 17 Nordeste 0 -- -- 26
2019-08-01 17:00:00 31.4 8 Nordeste 24 Nordeste 0 -- -- 26
2019-08-01 16:00:00 31.5 9 Norte 23 Norte 0 -- -- 27
2019-08-01 15:00:00 31.8 7 Nordeste 20 Norte 0 -- -- 29
2019-08-01 14:00:00 31.4 6 Nordeste 15 Nordeste 0 -- -- 29
2019-08-01 13:00:00 30.1 4 Este 12 Norte 0 -- -- 30
2019-08-01 12:00:00 27.8 7 Nordeste 15 Nordeste 0 -- -- 34
2019-08-01 11:00:00 26.4 6 Norte 18 Nordeste 0 -- -- 40
2019-08-01 10:00:00 24.9 5 Norte 12 Noroeste 0 -- -- 44
2019-08-01 09:00:00 22.5 4 Noroeste 12 Norte 0 -- -- 60
2019-08-01 08:00:00 19.9 4 Noroeste 9 Noroeste 0 -- -- 77
2019-08-01 07:00:00 19.4 0 Calma 8 Norte 0 -- -- 80
2019-08-01 06:00:00 19.5 2 Noroeste 5 Noroeste 0 -- -- 82
2019-08-01 05:00:00 19.8 0 Calma 5 Oeste 0 -- -- 81
2019-08-01 04:00:00 20.3 2 Este 6 Este 0 -- -- 77
2019-08-01 03:00:00 20.9 0 Calma 6 Sudeste 0 -- -- 74
2019-08-01 02:00:00 21.6 2 Este 6 Este 0 -- -- 69
2019-08-01 01:00:00 21.9 0 Calma 5 Nordeste 0 -- -- 65
2019-08-01 00:00:00 22.8 0 Calma 7 Sur 0 -- -- 61
2019-07-31 23:00:00 23.6 5 Sur 8 Sudeste 0 -- -- 60
2019-07-31 22:00:00 24.5 5 Sur 12 Sur 0 -- -- 54
2019-07-31 21:00:00 25.9 5 Sur 13 Sur 0 -- -- 51
2019-07-31 20:00:00 27.1 7 Sur 15 Sur 0 -- -- 48
2019-07-31 19:00:00 28.4 9 Sur 20 Sudoeste 0 -- -- 45
2019-07-31 18:00:00 30 10 Sur 19 Sudeste 0 -- -- 42
2019-07-31 17:00:00 30.3 8 Sur 22 Sur 0 -- -- 41
2019-07-31 16:00:00 30.6 9 Sur 26 Sudoeste 0 -- -- 40
2019-07-31 15:00:00 30.3 3 Sudoeste 14 Sudoeste 0 -- -- 38
2019-07-31 14:00:00 29.5 6 Sur 15 Nordeste 0 -- -- 39
2019-07-31 13:00:00 27.7 6 Nordeste 19 Nordeste 0 -- -- 42
2019-07-31 12:00:00 25.8 10 Norte 19 Norte 0 -- -- 46
2019-07-31 11:00:00 24.6 7 Norte 21 Nordeste 0 -- -- 48
2019-07-31 10:00:00 22.6 9 Norte 18 Norte 0 -- -- 53
2019-07-31 09:00:00 21.1 5 Norte 15 Nordeste 0 -- -- 57
2019-07-31 08:00:00 19.4 3 Norte 11 Noroeste 0 -- -- 62
2019-07-31 07:00:00 19 0 Calma 7 Norte 0 -- -- 65
2019-07-31 06:00:00 19.2 0 Calma 4 Oeste 0 -- -- 64
2019-07-31 05:00:00 19.3 0 Calma 4 Noroeste 0 -- -- 67
2019-07-31 04:00:00 19.5 0 Calma 3 Norte 0 -- -- 68
2019-07-31 03:00:00 20.3 2 Nordeste 4 Sudeste 0 -- -- 60
2019-07-31 02:00:00 21.2 0 Calma 4 Nordeste 0 -- -- 56
2019-07-31 01:00:00 21.9 0 Calma 8 Norte 0 -- -- 53
2019-07-31 00:00:00 22.7 3 Nordeste 9 Nordeste 0 -- -- 49
2019-07-30 23:00:00 23.3 3 Nordeste 15 Nordeste 0 -- -- 48
2019-07-30 22:00:00 24.2 6 Norte 16 Norte 0 -- -- 47
2019-07-30 21:00:00 24.7 5 Nordeste 16 Nordeste 0 -- -- 48
2019-07-30 20:00:00 25.6 7 Norte 16 Nordeste 0 -- -- 48
2019-07-30 19:00:00 26.3 5 Nordeste 16 Nordeste 0 -- -- 54
2019-07-30 18:00:00 26.4 7 Nordeste 18 Este 0 -- -- 54
2019-07-30 17:00:00 26.9 8 Nordeste 21 Nordeste 0 -- -- 53
2019-07-30 16:00:00 30.8 12 Sur 30 Sudeste 0 -- -- 52
2019-07-30 15:00:00 31.9 10 Sur 25 Sur 0 -- -- 49
2019-07-30 14:00:00 30.2 10 Sur 28 Sudeste 0 -- -- 55
2019-07-30 13:00:00 30.2 10 Sur 23 Sudeste 0 -- -- 52
2019-07-30 12:00:00 29.8 8 Sur 20 Sudeste 0 -- -- 46
2019-07-30 11:00:00 28.2 4 Sudoeste 11 Sur 0 -- -- 47
2019-07-30 10:00:00 25.4 3 Sudoeste 9 Sudoeste 0 -- -- 55
2019-07-30 09:00:00 23 3 Noroeste 6 Noroeste 0 -- -- 63
2019-07-30 08:00:00 20.9 0 Calma 4 Oeste 0 -- -- 92
2019-07-30 07:00:00 20.5 0 Calma 3 Norte 0 -- -- 89
2019-07-30 06:00:00 21 0 Calma 6 Norte 0 -- -- 91
2019-07-30 05:00:00 21.3 2 Nordeste 5 Este 0 -- -- 94
2019-07-30 04:00:00 21.8 0 Calma 6 Sudoeste 0 -- -- 92
2019-07-30 03:00:00 22.3 0 Calma 5 Norte 0 -- -- 91
2019-07-30 02:00:00 23.1 0 Calma 4 Este 0 -- -- 89
2019-07-30 01:00:00 24 2 Sudeste 5 Sudeste 0 -- -- 86
2019-07-30 00:00:00 24.7 0 Calma 5 Este 0 -- -- 82
2019-07-29 23:00:00 25.2 2 Sur 7 Sur 0 -- -- 79
2019-07-29 22:00:00 25.8 4 Sur 15 Sudeste 0 -- -- 77
2019-07-29 21:00:00 26.9 8 Sur 18 Sur 0 -- -- 70
2019-07-29 20:00:00 28.1 7 Sudeste 20 Este 0 -- -- 65
2019-07-29 19:00:00 29.7 9 Sudeste 23 Sur 0 -- -- 60
2019-07-29 18:00:00 30.8 11 Sur 27 Sur 0 -- -- 55
2019-07-29 17:00:00 31.5 10 Sur 26 Sur 0 -- -- 50
2019-07-29 16:00:00 31.2 12 Sur 23 Sudeste 0 -- -- 49
2019-07-29 15:00:00 30.8 10 Sur 22 Sudeste 0 -- -- 49
2019-07-29 14:00:00 30.8 12 Sur 20 Sudeste 0 -- -- 44
2019-07-29 13:00:00 29.6 6 Sudoeste 18 Sudeste 0 -- -- 45
2019-07-29 12:00:00 27.9 6 Sur 14 Sudoeste 0 -- -- 45
2019-07-29 11:00:00 25.9 5 Sudeste 11 Sur 0 -- -- 51
2019-07-29 10:00:00 23 3 Sur 7 Sur 0 -- -- 57
2019-07-29 09:00:00 18.8 2 Sudoeste 5 Sudoeste 0 -- -- 72
2019-07-29 08:00:00 16.8 0 Calma 4 Oeste 0 -- -- 84
2019-07-29 07:00:00 16.2 0 Calma 5 Noroeste 0 -- -- 86
2019-07-29 06:00:00 16.7 0 Calma 4 Noroeste 0 -- -- 86
2019-07-29 05:00:00 17.4 0 Calma 4 Norte 0 -- -- 85
2019-07-29 04:00:00 18.3 0 Calma 4 Norte 0 -- -- 85
2019-07-29 03:00:00 18.4 0 Calma 4 Oeste 0 -- -- 83
2019-07-29 02:00:00 19.4 0 Calma 5 Noroeste 0 -- -- 80
2019-07-29 01:00:00 20.3 0 Calma 4 Sudoeste 0 -- -- 75
2019-07-29 00:00:00 21.4 2 Noroeste 5 Noroeste 0 -- -- 71
2019-07-28 23:00:00 23 0 Calma 9 Sudeste 0 -- -- 63
2019-07-28 22:00:00 23.4 4 Sur 12 Sur 0 -- -- 63
2019-07-28 21:00:00 24.1 6 Sur 16 Sudeste 0 -- -- 59
2019-07-28 20:00:00 24.9 7 Sur 27 Sudeste 0 -- -- 60
2019-07-28 19:00:00 26.5 8 Sudeste 25 Sudoeste 0 -- -- 53
2019-07-28 18:00:00 28 11 Sur 25 Sur 0 -- -- 47
2019-07-28 17:00:00 29.1 10 Sur 29 Sudeste 0 -- -- 44
2019-07-28 16:00:00 29.4 8 Sur 22 Sur 0 -- -- 45
2019-07-28 15:00:00 29.3 8 Sudoeste 21 Sur 0 -- -- 44
2019-07-28 14:00:00 27.1 6 Este 15 Este 0 -- -- 47
2019-07-28 13:00:00 25.3 2 Oeste 10 Norte 0 -- -- 54
2019-07-28 12:00:00 24.2 4 Norte 13 Norte 0 -- -- 62
2019-07-28 11:00:00 24 3 Sur 8 Norte 0.2 -- -- 63
2019-07-28 10:00:00 21 3 Oeste 7 Noroeste 0 -- -- 76
2019-07-28 09:00:00 18.1 0 Calma 6 Sudoeste 0 -- -- 89
2019-07-28 08:00:00 16.1 0 Calma 11 Nordeste 0 -- -- 97
2019-07-28 07:00:00 15.7 2 Sudoeste 7 Sudoeste 0 -- -- 97
2019-07-28 06:00:00 15.8 0 Calma 6 Noroeste 0 -- -- 97
2019-07-28 05:00:00 16.1 0 Calma 4 Noroeste 0 -- -- 95
2019-07-28 04:00:00 16.6 0 Calma 5 Sudoeste 0 -- -- 95
2019-07-28 03:00:00 16.9 0 Calma 10 Norte 0 -- -- 96
2019-07-28 02:00:00 17.2 2 Norte 7 Este 0 -- -- 92
2019-07-28 01:00:00 17.4 0 Calma 8 Sudoeste 0 -- -- 93
2019-07-28 00:00:00 17.6 3 Sur 8 Sudoeste 0 -- -- 91
2019-07-27 23:00:00 18.1 4 Sur 9 Sudoeste 0 -- -- 89
2019-07-26 12:00:00 -- -- -- -- -- -- -- -- --
2019-07-26 11:00:00 30.4 3 Sudoeste 8 Sur 0 -- -- 56
2019-07-26 10:00:00 27.4 2 Noroeste 8 Noroeste 0 -- -- 70
2019-07-26 09:00:00 23.7 0 Calma 4 Noroeste 0 -- -- 82
2019-07-26 08:00:00 21.5 0 Calma 5 Oeste 0 -- -- 84
2019-07-26 07:00:00 20.9 0 Calma 3 Noroeste 0 -- -- 90
2019-07-26 06:00:00 21.6 0 Calma 6 Noroeste 0 -- -- 90
2019-07-26 05:00:00 23.2 0 Calma 5 Sudeste 0 -- -- 91
2019-07-26 04:00:00 23.7 0 Calma 12 Sudeste 0 -- -- 88
2019-07-26 03:00:00 24.1 5 Sudeste 13 Sudeste 0 -- -- 89
2019-07-26 02:00:00 24.5 4 Sudeste 11 Sudeste 0 -- -- 88
2019-07-26 01:00:00 24.9 4 Sur 12 Sur 0 -- -- 85
2019-07-26 00:00:00 25.4 4 Sur 15 Sudeste 0 -- -- 83
2019-07-25 23:00:00 25.9 7 Sudeste 14 Sur 0 -- -- 81
2019-07-25 22:00:00 26.8 7 Sur 19 Sur 0 -- -- 75
2019-07-25 21:00:00 28.2 8 Sur 25 Sur 0 -- -- 66
2019-07-25 20:00:00 30 10 Sur 25 Sur 0 -- -- 56
2019-07-25 19:00:00 31 13 Sudeste 33 Sur 0 -- -- 52
2019-07-25 18:00:00 32.1 13 Sudeste 31 Sur 0 -- -- 53
2019-07-25 17:00:00 33.4 15 Sur 35 Sur 0 -- -- 48
2019-07-25 16:00:00 34.9 12 Sur 32 Sur 0 -- -- 42
2019-07-25 15:00:00 35.5 14 Sur 30 Sur 0 -- -- 36
2019-07-25 14:00:00 36 9 Sur 24 Sudeste 0 -- -- 35
2019-07-25 13:00:00 35 11 Sur 25 Sur 0 -- -- 33
2019-07-25 12:00:00 33.3 8 Sur 19 Este 0 -- -- 41
2019-07-25 11:00:00 30.2 5 Sur 13 Sur 0 -- -- 53
2019-07-25 10:00:00 26.6 5 Sur 13 Sudoeste 0 -- -- 74
2019-07-25 09:00:00 24.3 3 Sur 7 Sur 0 -- -- 79
2019-07-25 08:00:00 23.1 4 Sudeste 6 Sudeste 0 -- -- 77
2019-07-25 07:00:00 22.5 2 Sur 7 Sudoeste 0 -- -- 79
2019-07-25 06:00:00 22.1 0 Calma 7 Sur 0 -- -- 78
2019-07-25 05:00:00 22.8 3 Sur 8 Sur 0 -- -- 73
2019-07-25 04:00:00 23.5 4 Sudoeste 6 Sudoeste 0 -- -- 74
2019-07-25 03:00:00 23.8 4 Sur 8 Sudeste 0 -- -- 75
2019-07-25 02:00:00 24.4 0 Calma 7 Sudeste 0 -- -- 69
2019-07-25 01:00:00 25.1 5 Sudeste 10 Sur 0 -- -- 65
2019-07-25 00:00:00 25.8 4 Sur 10 Sudoeste 0 -- -- 66
2019-07-24 23:00:00 26.8 4 Sur 11 Sudeste 0 -- -- 61
2019-07-24 22:00:00 27.8 6 Sur 13 Sudoeste 0 -- -- 56
2019-07-24 21:00:00 29.3 8 Sur 17 Sudoeste 0 -- -- 50
2019-07-24 20:00:00 31 8 Sudoeste 20 Sudoeste 0 -- -- 43
2019-07-24 19:00:00 33.2 9 Sur 19 Sur 0 -- -- 38
2019-07-24 18:00:00 34.4 9 Sur 24 Sudeste 0 -- -- 36
2019-07-24 17:00:00 34.8 9 Sudeste 28 Sudeste 0 -- -- 37
2019-07-24 16:00:00 35.4 12 Sur 25 Sur 0 -- -- 40
2019-07-24 15:00:00 36.4 9 Sur 20 Sudeste 0 -- -- 42
2019-07-24 14:00:00 35.5 5 Oeste 20 Sudoeste 0 -- -- 41
2019-07-24 13:00:00 34.4 6 Sur 13 Sudoeste 0 -- -- 42
2019-07-24 12:00:00 32.5 5 Sur 12 Sur 0 -- -- 50
2019-07-24 11:00:00 30.2 4 Noroeste 10 Noroeste 0 -- -- 56
2019-07-24 10:00:00 27.6 3 Noroeste 8 Este 0 -- -- 69
2019-07-24 09:00:00 24.7 2 Noroeste 4 Sudoeste 0 -- -- 81
2019-07-24 08:00:00 23.1 0 Calma 5 Sudoeste 0 -- -- 86
2019-07-24 07:00:00 22.5 2 Noroeste 6 Noroeste 0 -- -- 88
2019-07-24 06:00:00 23.3 2 Noroeste 5 Noroeste 0 -- -- 91
2019-07-24 05:00:00 22.9 0 Calma 6 Oeste 0 -- -- 88
2019-07-24 04:00:00 23.3 0 Calma 4 Noroeste 0 -- -- 86
2019-07-24 03:00:00 24 0 Calma 3 Noroeste 0 -- -- 85
2019-07-24 02:00:00 24.6 0 Calma 7 Sur 0 -- -- 76
2019-07-24 01:00:00 25.2 3 Sur 8 Sudeste 0 -- -- 75
2019-07-24 00:00:00 25.8 4 Sudeste 9 Sur 0 -- -- 71
2019-07-23 23:00:00 26.8 5 Sur 12 Sur 0 -- -- 68
2019-07-23 22:00:00 28 6 Sur 17 Sur 0 -- -- 61
2019-07-23 21:00:00 29.9 5 Sur 20 Sudeste 0 -- -- 49
2019-07-23 20:00:00 31.6 9 Sur 26 Sur 0 -- -- 39
2019-07-23 19:00:00 33.3 9 Sur 23 Sur 0 -- -- 33
2019-07-23 18:00:00 34.8 11 Sur 25 Sudeste 0 -- -- 32
2019-07-23 17:00:00 35.4 12 Sur 26 Sudeste 0 -- -- 34
2019-07-23 16:00:00 35.9 12 Sur 27 Sur 0 -- -- 31
2019-07-23 15:00:00 36.2 12 Sur 28 Sur 0 -- -- 29
2019-07-23 14:00:00 36.3 11 Sur 26 Sur 0 -- -- 30
2019-07-23 13:00:00 34.8 8 Sur 16 Sudoeste 0 -- -- 40
2019-07-23 12:00:00 32.4 5 Sur 13 Sur 0 -- -- 42
2019-07-23 11:00:00 29.7 6 Sur 12 Sudoeste 0 -- -- 56
2019-07-23 10:00:00 26.5 4 Sudoeste 9 Sudoeste 0 -- -- 70
2019-07-23 09:00:00 23.4 0 Calma 5 Noroeste 0 -- -- 76
2019-07-23 08:00:00 21.6 0 Calma 5 Sudoeste 0 -- -- 80
2019-07-23 07:00:00 20.7 0 Calma 3 Noroeste 0 -- -- 87
2019-07-23 06:00:00 21.3 2 Norte 6 Sudeste 0 -- -- 85
2019-07-23 05:00:00 21.8 3 Sur 9 Sudoeste 0 -- -- 88
2019-07-23 04:00:00 23.2 4 Sur 9 Sudeste 0 -- -- 82
2019-07-23 03:00:00 24.6 4 Sudeste 12 Sur 0 -- -- 74
2019-07-23 02:00:00 25.3 5 Sudeste 10 Sudeste 0 -- -- 73
2019-07-23 01:00:00 26 3 Sur 10 Sur 0 -- -- 65
2019-07-23 00:00:00 27 5 Sudeste 11 Sur 0 -- -- 55